Time;durP1;ratioP1;P1;durP2;ratioP2;P2;SDS_P1;SDS_P2;PMS_P1;PMS_P2;Temp;Humidity;BMP_temperature;BMP_pressure;BME280_temperature;BME280_humidity;BME280_pressure;Samples;Min_cycle;Max_cycle;Signal;HPM_P1;HPM_P2
2023/08/09 00:01:55;;;;;;;30.55;28.45;;;;;;;15.38;100.00;101319.22;5049201;28;20052;-79
2023/08/09 00:04:22;;;;;;;34.85;32.55;;;;;;;15.20;100.00;101313.88;5049095;28;20049;-79
2023/08/09 00:06:49;;;;;;;30.65;28.35;;;;;;;15.27;100.00;101307.38;5049644;28;20057;-84
2023/08/09 00:09:17;;;;;;;30.75;28.25;;;;;;;15.17;100.00;101315.13;5049415;28;20049;-79
2023/08/09 00:11:44;;;;;;;27.42;25.33;;;;;;;15.28;100.00;101316.22;5049456;28;20041;-79
2023/08/09 00:14:11;;;;;;;30.45;28.05;;;;;;;14.64;100.00;101307.56;5049070;28;20052;-79
2023/08/09 00:16:37;;;;;;;31.63;29.23;;;;;;;14.93;100.00;101314.13;5049297;28;20064;-79
2023/08/09 00:19:05;;;;;;;30.25;27.95;;;;;;;14.63;100.00;101320.13;5048896;28;20436;-79
2023/08/09 00:21:32;;;;;;;29.90;27.60;;;;;;;15.11;100.00;101318.69;5050884;28;20049;-84
2023/08/09 00:23:59;;;;;;;28.80;26.60;;;;;;;15.07;100.00;101317.50;5049800;28;20061;-79
2023/08/09 00:26:27;;;;;;;29.02;26.73;;;;;;;14.52;100.00;101312.81;5049114;28;20045;-78
2023/08/09 00:28:54;;;;;;;29.75;27.45;;;;;;;14.90;100.00;101319.91;5048965;28;20064;-78
2023/08/09 00:31:21;;;;;;;30.95;28.50;;;;;;;15.01;100.00;101316.53;5049452;28;20049;-79
2023/08/09 00:33:48;;;;;;;31.83;29.38;;;;;;;15.07;100.00;101320.16;5048906;28;20045;-79
2023/08/09 00:36:15;;;;;;;31.33;28.83;;;;;;;15.09;100.00;101323.44;5049466;28;20611;-79
2023/08/09 00:38:43;;;;;;;30.52;28.13;;;;;;;14.97;100.00;101325.19;5048575;28;20052;-79
2023/08/09 00:41:10;;;;;;;28.83;26.63;;;;;;;14.63;100.00;101314.78;5049126;28;20064;-79
2023/08/09 00:43:38;;;;;;;31.23;28.83;;;;;;;14.64;100.00;101316.44;5049826;28;20514;-84
2023/08/09 00:46:05;;;;;;;29.80;27.50;;;;;;;14.65;100.00;101307.38;5049795;28;20049;-84
2023/08/09 00:48:32;;;;;;;30.23;27.73;;;;;;;14.77;100.00;101318.19;5050205;28;20427;-84
2023/08/09 00:50:59;;;;;;;29.65;27.45;;;;;;;14.84;100.00;101318.91;5051148;28;20045;-84
2023/08/09 00:53:26;;;;;;;32.10;29.70;;;;;;;14.79;100.00;101312.59;5050510;28;20057;-84
2023/08/09 00:55:53;;;;;;;29.20;27.10;;;;;;;14.74;100.00;101326.63;5049966;28;20136;-79
2023/08/09 00:58:20;;;;;;;32.25;29.85;;;;;;;14.63;100.00;101322.00;5052664;28;20500;-78
2023/08/09 01:00:49;;;;;;;30.35;28.05;;;;;;;14.58;100.00;101322.66;5051794;28;20436;-79
2023/08/09 01:03:16;;;;;;;30.52;28.25;;;;;;;14.36;100.00;101322.16;5052511;28;20072;-79
2023/08/09 01:05:51;;;;;;;30.85;28.45;;;;;;;14.54;100.00;101328.63;5052379;28;20044;-79
2023/08/09 01:08:27;;;;;;;29.70;27.42;;;;;;;14.31;100.00;101316.66;5048904;28;20481;-83
2023/08/09 01:10:59;;;;;;;30.40;28.00;;;;;;;14.48;100.00;101321.47;5053710;28;20440;-83
2023/08/09 01:13:27;;;;;;;30.60;28.20;;;;;;;14.57;100.00;101317.50;5053170;28;20068;-83
2023/08/09 01:15:56;;;;;;;27.73;25.63;;;;;;;14.61;100.00;101318.69;5053948;28;20045;-83
2023/08/09 01:18:24;;;;;;;27.70;25.60;;;;;;;14.60;100.00;101319.75;5053581;28;20056;-83
2023/08/09 01:20:52;;;;;;;27.73;25.63;;;;;;;14.39;100.00;101318.22;5052127;28;20059;-78
2023/08/09 01:23:21;;;;;;;26.70;24.60;;;;;;;13.92;100.00;101321.19;5052153;28;20059;-79
2023/08/09 01:25:49;;;;;;;27.00;24.90;;;;;;;14.42;100.00;101328.47;5051825;28;20505;-78
2023/08/09 01:28:17;;;;;;;27.40;25.30;;;;;;;14.37;100.00;101329.16;5052919;28;20137;-79
2023/08/09 01:30:45;;;;;;;27.58;25.48;;;;;;;13.99;100.00;101323.81;5051705;28;20080;-79
2023/08/09 01:33:13;;;;;;;29.52;27.42;;;;;;;14.19;100.00;101324.53;5051916;28;20045;-78
2023/08/09 01:35:48;;;;;;;31.98;29.67;;;;;;;14.23;100.00;101326.78;5052383;28;20071;-79
2023/08/09 01:38:23;;;;;;;34.45;31.85;;;;;;;14.09;100.00;101331.34;5051551;28;20110;-79
2023/08/09 01:40:53;;;;;;;28.33;26.23;;;;;;;14.04;100.00;101331.19;5051772;28;20067;-79
2023/08/09 01:43:21;;;;;;;27.50;25.50;;;;;;;13.92;100.00;101329.19;5051789;28;20581;-79
2023/08/09 01:45:48;;;;;;;29.30;27.10;;;;;;;13.48;100.00;101330.78;5051988;28;20163;-78
2023/08/09 01:48:15;;;;;;;28.92;26.83;;;;;;;13.65;100.00;101333.84;5051637;28;20088;-79
2023/08/09 01:50:45;;;;;;;27.60;25.60;;;;;;;13.90;100.00;101335.78;5051444;28;20430;-79
2023/08/09 01:53:12;;;;;;;32.90;30.27;;;;;;;13.95;100.00;101335.97;5051528;28;20053;-79
2023/08/09 01:55:40;;;;;;;30.00;27.80;;;;;;;13.85;100.00;101347.09;5052196;28;20053;-84
2023/08/09 01:58:08;;;;;;;30.75;28.45;;;;;;;13.89;100.00;101342.97;5053041;28;20056;-84
2023/08/09 02:00:35;;;;;;;30.83;28.45;;;;;;;13.87;100.00;101341.53;5052904;28;20440;-84
2023/08/09 02:03:03;;;;;;;30.63;28.33;;;;;;;13.78;100.00;101353.50;5052785;28;20053;-79
2023/08/09 02:05:30;;;;;;;35.50;32.90;;;;;;;13.83;100.00;101349.16;5052633;28;20126;-83
2023/08/09 02:07:57;;;;;;;33.38;30.88;;;;;;;13.79;100.00;101361.28;5052454;28;20055;-84
2023/08/09 02:10:26;;;;;;;31.65;29.25;;;;;;;14.02;100.00;101359.97;5052875;28;20126;-84
2023/08/09 02:12:53;;;;;;;40.05;37.25;;;;;;;13.94;100.00;101353.81;5053071;28;20048;-84
2023/08/09 02:15:21;;;;;;;39.33;36.55;;;;;;;14.06;100.00;101364.66;5052552;28;20041;-84
2023/08/09 02:17:50;;;;;;;40.30;37.33;;;;;;;13.64;100.00;101361.53;5052649;28;20052;-84
2023/08/09 02:20:18;;;;;;;48.97;45.67;;;;;;;13.67;100.00;101363.78;5052332;28;20053;-84
2023/08/09 02:22:45;;;;;;;43.05;40.05;;;;;;;13.94;100.00;101364.50;5052268;28;20509;-84
2023/08/09 02:25:13;;;;;;;41.53;38.63;;;;;;;13.97;100.00;101371.28;5052419;28;20049;-84
2023/08/09 02:27:40;;;;;;;50.17;46.97;;;;;;;13.90;100.00;101371.31;5052804;28;20060;-84
2023/08/09 02:30:09;;;;;;;42.03;39.13;;;;;;;13.87;100.00;101371.72;5051935;28;20048;-84
2023/08/09 02:32:37;;;;;;;41.75;38.95;;;;;;;13.98;100.00;101375.59;5052784;28;20084;-83
2023/08/09 02:35:06;;;;;;;34.83;32.10;;;;;;;14.07;100.00;101368.13;5052692;28;20066;-83
2023/08/09 02:37:34;;;;;;;37.95;35.25;;;;;;;13.62;100.00;101384.16;5052574;28;20068;-84
2023/08/09 02:40:01;;;;;;;42.45;39.55;;;;;;;13.55;100.00;101373.47;5050096;28;20126;-79
2023/08/09 02:42:28;;;;;;;43.30;40.50;;;;;;;13.56;100.00;101380.47;5050045;28;20049;-79
2023/08/09 02:44:55;;;;;;;36.90;34.22;;;;;;;13.61;100.00;101387.84;5050097;28;20500;-78
2023/08/09 02:47:23;;;;;;;38.20;35.45;;;;;;;13.32;100.00;101373.94;5050040;28;20140;-79
2023/08/09 02:49:51;;;;;;;41.88;38.97;;;;;;;13.69;100.00;101380.41;5050524;28;20489;-79
2023/08/09 02:52:18;;;;;;;41.03;38.13;;;;;;;13.86;100.00;101390.66;5051003;28;20432;-79
2023/08/09 02:54:45;;;;;;;51.55;48.25;;;;;;;13.78;100.00;101385.53;5050111;28;20059;-79
2023/08/09 02:57:12;;;;;;;52.72;49.33;;;;;;;13.57;100.00;101386.63;5051010;28;20059;-80
2023/08/09 02:59:39;;;;;;;46.05;42.95;;;;;;;13.55;100.00;101394.00;5051049;28;20057;-83
2023/08/09 03:02:06;;;;;;;48.65;45.45;;;;;;;13.58;100.00;101385.59;5051044;28;20048;-83
2023/08/09 03:04:34;;;;;;;44.10;41.20;;;;;;;13.68;100.00;101389.47;5035678;28;20091;-79
2023/08/09 03:07:02;;;;;;;37.90;35.20;;;;;;;13.64;100.00;101393.56;5050264;28;20559;-79
2023/08/09 03:09:29;;;;;;;31.40;29.20;;;;;;;13.48;100.00;101399.38;5049936;28;20051;-79
2023/08/09 03:11:56;;;;;;;30.70;28.50;;;;;;;13.31;100.00;101403.50;5049554;28;20068;-79
2023/08/09 03:14:23;;;;;;;27.50;25.60;;;;;;;13.36;100.00;101395.69;5049888;28;20053;-79
2023/08/09 03:16:50;;;;;;;27.42;25.42;;;;;;;13.35;100.00;101394.06;5050326;28;20521;-79
2023/08/09 03:19:17;;;;;;;27.50;25.50;;;;;;;13.09;100.00;101390.34;5049724;28;20124;-79
2023/08/09 03:21:44;;;;;;;30.45;28.15;;;;;;;13.25;100.00;101399.78;5050483;28;20539;-83
2023/08/09 03:24:13;;;;;;;25.48;23.67;;;;;;;13.32;100.00;101405.16;5044929;28;20052;-79
2023/08/09 03:26:40;;;;;;;25.05;23.35;;;;;;;13.37;100.00;101403.47;5049303;28;20053;-79
2023/08/09 03:29:07;;;;;;;27.33;25.55;;;;;;;13.28;100.00;101405.56;5049812;28;20106;-79
2023/08/09 03:31:34;;;;;;;25.27;23.58;;;;;;;13.05;100.00;101405.94;5049446;28;20049;-79
2023/08/09 03:34:02;;;;;;;25.08;23.38;;;;;;;13.33;100.00;101410.25;5050370;28;20060;-79
2023/08/09 03:36:29;;;;;;;24.35;22.75;;;;;;;12.95;100.00;101407.38;5050046;28;20436;-79
2023/08/09 03:38:57;;;;;;;24.65;23.05;;;;;;;13.12;100.00;101418.47;5049445;28;20056;-79
2023/08/09 03:41:26;;;;;;;24.25;22.65;;;;;;;12.86;100.00;101413.91;5049641;28;20081;-79
2023/08/09 03:43:53;;;;;;;24.80;23.15;;;;;;;12.88;100.00;101418.03;5049628;28;20055;-79
2023/08/09 03:46:22;;;;;;;26.23;24.45;;;;;;;13.39;100.00;101424.63;5049580;28;20417;-78
2023/08/09 03:48:48;;;;;;;25.20;23.60;;;;;;;13.56;100.00;101423.16;5049770;28;20500;-78
2023/08/09 03:51:15;;;;;;;25.52;23.92;;;;;;;13.34;100.00;101424.41;5049687;28;20112;-79
2023/08/09 03:53:42;;;;;;;25.13;23.52;;;;;;;13.23;100.00;101433.84;5049129;28;20135;-78
2023/08/09 03:56:09;;;;;;;26.00;24.25;;;;;;;13.47;100.00;101430.56;5049833;28;20083;-79
2023/08/09 03:58:37;;;;;;;24.80;23.20;;;;;;;13.77;100.00;101426.59;5049737;28;20052;-78
2023/08/09 04:01:04;;;;;;;24.77;23.08;;;;;;;14.05;100.00;101437.00;5048813;28;20361;-79
2023/08/09 04:03:31;;;;;;;24.40;22.80;;;;;;;13.78;100.00;101439.75;5049211;28;20045;-79
2023/08/09 04:05:59;;;;;;;25.05;23.35;;;;;;;13.93;100.00;101434.97;5048948;28;20045;-79
2023/08/09 04:08:27;;;;;;;25.67;23.98;;;;;;;14.03;100.00;101439.88;5045924;28;20486;-79
2023/08/09 04:10:54;;;;;;;27.70;25.90;;;;;;;14.35;100.00;101446.13;5047276;28;20075;-79
2023/08/09 04:13:21;;;;;;;28.15;26.35;;;;;;;14.46;100.00;101441.94;5045606;28;20045;-79
2023/08/09 04:15:50;;;;;;;24.90;23.20;;;;;;;14.51;100.00;101443.97;5046515;28;20061;-79
2023/08/09 04:18:17;;;;;;;28.13;26.23;;;;;;;14.64;100.00;101444.75;5009966;28;20516;-78
2023/08/09 04:20:45;;;;;;;27.33;25.42;;;;;;;14.63;100.00;101455.66;5047682;28;20045;-79
2023/08/09 04:23:12;;;;;;;26.90;25.00;;;;;;;14.73;100.00;101453.31;5046485;28;21145;-79
2023/08/09 04:25:39;;;;;;;26.73;24.92;;;;;;;14.81;100.00;101449.59;5043536;28;20057;-79
2023/08/09 04:28:08;;;;;;;24.73;23.02;;;;;;;14.87;100.00;101452.19;5047553;28;20063;-79
2023/08/09 04:30:35;;;;;;;25.05;23.35;;;;;;;15.16;100.00;101449.94;5046288;28;20128;-79
2023/08/09 04:33:04;;;;;;;25.45;23.75;;;;;;;14.92;100.00;101453.41;5052436;28;20053;-84
2023/08/09 04:35:31;;;;;;;25.27;23.58;;;;;;;15.17;100.00;101448.91;5055760;28;20515;-84
2023/08/09 04:38:18;;;;;;;26.40;24.70;;;;;;;15.33;100.00;101448.34;5054913;28;20504;-84
2023/08/09 04:40:55;;;;;;;25.40;23.80;;;;;;;15.38;100.00;101446.88;5053574;28;20484;-84
2023/08/09 04:43:44;;;;;;;25.00;23.30;;;;;;;15.49;100.00;101455.00;5055608;28;20060;-84
2023/08/09 04:46:32;;;;;;;26.35;24.58;;;;;;;15.60;100.00;101460.66;5055722;28;20053;-83
2023/08/09 04:49:06;;;;;;;26.08;24.38;;;;;;;15.61;100.00;101464.97;5055082;28;20059;-84
2023/08/09 04:51:55;;;;;;;27.15;25.35;;;;;;;15.71;100.00;101462.66;5055794;28;20045;-84
2023/08/09 04:54:22;;;;;;;28.52;26.73;;;;;;;15.91;100.00;101454.38;5054886;28;20052;-84
2023/08/09 04:56:50;;;;;;;25.65;23.95;;;;;;;15.71;100.00;101460.78;5054994;28;20049;-83
2023/08/09 04:59:17;;;;;;;27.13;25.38;;;;;;;16.06;100.00;101459.38;5039371;28;20128;-84
2023/08/09 05:02:09;;;;;;;25.98;24.30;;;;;;;16.21;100.00;101465.97;5042661;28;20049;-84
2023/08/09 05:04:37;;;;;;;29.02;27.33;;;;;;;16.16;100.00;101462.38;5042947;28;20114;-82
2023/08/09 05:07:04;;;;;;;29.75;27.98;;;;;;;16.23;100.00;101453.19;5050269;28;20428;-83
2023/08/09 05:09:57;;;;;;;27.08;25.38;;;;;;;16.33;100.00;101467.91;5052542;28;20041;-84
2023/08/09 05:12:24;;;;;;;28.02;26.23;;;;;;;16.20;100.00;101459.00;5053948;28;20056;-84
2023/08/09 05:14:51;;;;;;;26.63;24.92;;;;;;;16.25;100.00;101461.81;5052051;28;20044;-79
2023/08/09 05:17:18;;;;;;;25.05;23.45;;;;;;;16.33;100.00;101455.31;5049082;28;20057;-79
2023/08/09 05:19:47;;;;;;;26.15;24.35;;;;;;;16.63;100.00;101468.75;5050795;28;20052;-84
2023/08/09 05:22:14;;;;;;;25.48;23.77;;;;;;;16.76;100.00;101457.03;5052252;28;20394;-78
2023/08/09 05:24:41;;;;;;;26.92;25.23;;;;;;;17.05;100.00;101463.41;5045868;28;20238;-79
2023/08/09 05:27:08;;;;;;;25.35;23.85;;;;;;;22.16;100.00;101454.56;5050928;28;20063;-81
2023/08/09 05:29:37;;;;;;;24.70;23.30;;;;;;;17.72;100.00;101456.88;5046877;28;20049;-79
2023/08/09 05:32:13;;;;;;;25.00;23.60;;;;;;;17.49;100.00;101468.44;5047869;28;20080;-84
2023/08/09 05:34:40;;;;;;;26.00;24.55;;;;;;;17.28;100.00;101451.09;5054145;28;20053;-79
2023/08/09 05:37:08;;;;;;;24.73;23.33;;;;;;;17.61;100.00;101462.06;5048812;28;20075;-79
2023/08/09 05:39:45;;;;;;;23.42;22.02;;;;;;;18.04;100.00;101460.03;5051479;28;20053;-83
2023/08/09 05:42:28;;;;;;;24.45;23.05;;;;;;;17.85;100.00;101460.19;5053853;28;20532;-84
2023/08/09 05:45:02;;;;;;;25.42;23.92;;;;;;;17.82;100.00;101473.25;5054314;28;20494;-84
2023/08/09 05:47:28;;;;;;;28.45;25.50;;;;;;;18.18;100.00;101461.38;5053891;28;20041;-84
2023/08/09 05:50:23;;;;;;;24.40;22.90;;;;;;;18.27;100.00;101465.31;5053897;28;20056;-84
2023/08/09 05:52:55;;;;;;;22.00;20.60;;;;;;;18.32;100.00;101464.63;5053912;28;20118;-84
2023/08/09 05:55:28;;;;;;;25.17;23.30;;;;;;;18.63;100.00;101459.81;5028588;28;20073;-83
2023/08/09 05:58:03;;;;;;;23.25;21.95;;;;;;;18.63;100.00;101471.38;5018850;28;20041;-83
2023/08/09 06:01:07;;;;;;;23.50;22.20;;;;;;;18.53;100.00;101469.31;5032377;28;20050;-83
2023/08/09 06:03:49;;;;;;;23.77;22.58;;;;;;;19.06;100.00;101471.88;5034318;28;20064;-83
2023/08/09 06:09:56;;;;;;;23.08;21.88;;;;;;;19.51;100.00;101466.38;5019752;28;20113;-84
2023/08/09 06:12:40;;;;;;;23.73;22.52;;;;;;;19.36;100.00;101460.78;5023910;28;20046;-84
2023/08/09 06:15:22;;;;;;;21.55;20.25;;;;;;;19.66;100.00;101461.25;5031032;28;20049;-79
2023/08/09 06:21:10;;;;;;;22.70;21.40;;;;;;;19.84;100.00;101464.72;5029725;28;20056;-83
2023/08/09 06:27:50;;;;;;;20.83;19.52;;;;;;;20.51;100.00;101466.31;5013948;28;20580;-83
2023/08/09 06:30:46;;;;;;;21.95;20.23;;;;;;;20.53;100.00;101459.63;4973167;28;20060;-84
2023/08/09 06:36:54;;;;;;;19.20;18.10;;;;;;;21.11;100.00;101461.75;5026188;28;20090;-79
2023/08/09 06:49:22;;;;;;;20.80;19.60;;;;;;;21.36;100.00;101447.66;5013551;28;20107;-79
2023/08/09 06:51:50;;;;;;;20.98;19.67;;;;;;;21.85;100.00;101442.00;5012200;28;20053;-79
2023/08/09 06:54:18;;;;;;;20.50;19.20;;;;;;;21.82;100.00;101439.81;5035797;28;20063;-79
2023/08/09 06:57:04;;;;;;;20.58;19.27;;;;;;;22.02;100.00;101445.28;5051170;28;20052;-79
2023/08/09 06:59:31;;;;;;;20.40;19.10;;;;;;;22.13;100.00;101443.44;5051394;28;20106;-79
2023/08/09 07:02:15;;;;;;;18.20;16.90;;;;;;;21.68;100.00;101439.47;5051204;28;20053;-79
2023/08/09 07:04:42;;;;;;;22.15;20.80;;;;;;;21.89;100.00;101432.28;5051038;28;20048;-79
2023/08/09 07:07:36;;;;;;;21.45;20.25;;;;;;;22.14;100.00;101434.25;5051519;28;20045;-83
2023/08/09 07:16:47;;;;;;;19.40;18.10;;;;;;;22.66;100.00;101429.78;5052861;28;20040;-84
2023/08/09 07:19:42;;;;;;;19.73;18.33;;;;;;;22.55;100.00;101434.38;5052710;28;20056;-83
2023/08/09 07:35:46;;;;;;;21.83;20.23;;;;;;;23.75;100.00;101422.06;5052649;28;20113;-84
2023/08/09 07:38:13;;;;;;;23.17;21.67;;;;;;;23.92;100.00;101411.69;5052215;28;20045;-84
2023/08/09 07:44:02;;;;;;;24.90;23.40;;;;;;;24.38;100.00;101425.00;5052431;28;20083;-83
2023/08/09 07:49:51;;;;;;;22.88;21.48;;;;;;;24.13;100.00;101411.59;5052444;28;20090;-84
2023/08/09 08:10:03;;;;;;;22.00;20.50;;;;;;;25.08;100.00;101391.31;5055587;28;20031;-79
2023/08/09 08:12:34;;;;;;;21.33;19.83;;;;;;;25.49;100.00;101377.34;5054818;28;20401;-79
2023/08/09 08:15:18;;;;;;;23.63;22.05;;;;;;;25.44;100.00;101385.53;5055403;28;20049;-84
2023/08/09 08:18:27;;;;;;;22.80;21.40;;;;;;;26.00;100.00;101382.16;5056751;28;20054;-85
2023/08/09 08:24:59;;;;;;;21.88;20.38;;;;;;;24.49;100.00;101374.22;5056173;28;20036;-84
2023/08/09 08:30:52;;;;;;;19.60;18.27;;;;;;;24.51;100.00;101371.19;5055827;28;20040;-84
2023/08/09 08:33:51;;;;;;;19.67;18.27;;;;;;;24.92;100.00;101379.81;5056036;28;20045;-81
2023/08/09 08:36:49;;;;;;;19.95;18.60;;;;;;;25.11;100.00;101372.56;5054835;28;20102;-83
2023/08/09 08:39:52;;;;;;;20.23;18.83;;;;;;;25.83;100.00;101369.03;5055340;28;20075;-85
2023/08/09 08:46:15;;;;;;;20.40;19.10;;;;;;;24.85;100.00;101374.72;5055713;28;20059;-83
2023/08/09 08:48:58;;;;;;;20.00;18.65;;;;;;;24.58;100.00;101369.78;5055893;28;20432;-83
2023/08/09 08:51:28;;;;;;;21.90;20.50;;;;;;;25.09;100.00;101360.34;5054534;28;20052;-79
2023/08/09 08:54:25;;;;;;;19.90;18.60;;;;;;;24.36;100.00;101358.53;5054452;28;20057;-80
2023/08/09 09:03:56;;;;;;;22.13;20.63;;;;;;;23.49;100.00;101337.31;5015576;28;20044;-84
2023/08/09 09:06:35;;;;;;;22.30;20.80;;;;;;;24.36;100.00;101337.63;5015339;28;20058;-79
2023/08/09 09:09:11;;;;;;;20.55;19.15;;;;;;;24.31;100.00;101345.00;5015486;28;20481;-85
2023/08/09 09:11:47;;;;;;;20.80;19.30;;;;;;;24.86;100.00;101332.06;5014785;28;20065;-83
2023/08/09 09:14:16;;;;;;;20.20;18.90;;;;;;;25.18;100.00;101338.84;5014045;28;20053;-80
2023/08/09 09:16:43;;;;;;;23.25;21.75;;;;;;;25.51;100.00;101324.28;5012724;28;20060;-79
2023/08/09 09:19:12;;;;;;;24.73;23.15;;;;;;;25.21;100.00;101322.75;5013774;28;20054;-79
2023/08/09 09:21:40;;;;;;;22.27;20.67;;;;;;;24.83;100.00;101332.63;5013904;28;20061;-79
2023/08/09 09:24:08;;;;;;;22.48;20.88;;;;;;;24.98;100.00;101321.59;5014081;28;20502;-79
2023/08/09 09:26:38;;;;;;;21.83;20.42;;;;;;;25.39;100.00;101317.63;5013696;28;20061;-79
2023/08/09 09:29:12;;;;;;;22.00;20.60;;;;;;;25.93;100.00;101313.66;5013480;28;20065;-79
2023/08/09 09:31:40;;;;;;;21.45;20.00;;;;;;;25.55;100.00;101322.59;5013561;28;20053;-80
2023/08/09 09:34:13;;;;;;;20.65;19.17;;;;;;;25.36;100.00;101319.84;5014042;28;20104;-80
2023/08/09 09:36:49;;;;;;;21.60;20.00;;;;;;;25.60;100.00;101316.28;5013657;28;20050;-80
2023/08/09 09:39:29;;;;;;;21.30;19.75;;;;;;;24.63;100.00;101310.00;5014425;28;20056;-85
2023/08/09 09:41:56;;;;;;;20.67;19.17;;;;;;;25.30;100.00;101303.91;4994559;28;20051;-80
2023/08/09 09:44:23;;;;;;;21.75;20.25;;;;;;;24.83;100.00;101308.19;4993846;28;20054;-80
2023/08/09 09:46:54;;;;;;;20.73;19.33;;;;;;;24.68;100.00;101301.78;5010188;28;20430;-79
2023/08/09 09:49:28;;;;;;;19.70;18.30;;;;;;;25.13;100.00;101291.56;5013439;28;20050;-79
2023/08/09 09:52:06;;;;;;;20.45;19.05;;;;;;;25.27;100.00;101301.75;5013312;28;20481;-80
2023/08/09 09:54:34;;;;;;;20.85;19.35;;;;;;;25.40;100.00;101301.03;5014933;28;20062;-80
2023/08/09 09:57:07;;;;;;;21.73;20.20;;;;;;;25.66;100.00;101287.91;5051759;28;20428;-80
2023/08/09 09:59:40;;;;;;;22.80;21.20;;;;;;;26.71;100.00;101290.34;5052653;28;20052;-80
2023/08/09 10:02:10;;;;;;;21.98;20.38;;;;;;;27.20;100.00;101294.31;5052546;28;20053;-80
2023/08/09 10:04:47;;;;;;;20.48;18.98;;;;;;;26.95;100.00;101287.44;5050058;28;20114;-80
2023/08/09 10:07:18;;;;;;;22.50;21.00;;;;;;;27.76;100.00;101295.03;5049648;28;20079;-80
2023/08/09 10:09:46;;;;;;;21.30;19.80;;;;;;;26.90;96.78;101287.53;4701239;28;10000008;-80
2023/08/09 10:12:13;;;;;;;24.20;22.60;;;;;;;26.37;100.00;101277.03;5051198;28;20428;-79
2023/08/09 10:14:54;;;;;;;21.92;20.42;;;;;;;28.00;100.00;101281.94;5049131;28;20513;-80
2023/08/09 10:17:23;;;;;;;22.20;20.70;;;;;;;28.70;100.00;101285.91;5048498;28;20052;-79
2023/08/09 10:19:53;;;;;;;23.05;21.55;;;;;;;27.58;100.00;101285.91;5044779;28;20512;-80
2023/08/09 10:22:21;;;;;;;23.42;21.92;;;;;;;27.83;100.00;101284.53;5051295;28;20049;-83
2023/08/09 10:25:41;;;;;;;23.08;21.48;;;;;;;28.84;100.00;101272.16;5053767;28;20049;-84
2023/08/09 10:31:48;;;;;;;24.20;22.60;;;;;;;27.94;92.13;101279.66;5053784;28;20040;-85
2023/08/09 10:34:54;;;;;;;24.40;22.80;;;;;;;27.99;94.22;101280.34;5053794;28;20052;-83
2023/08/09 10:37:30;;;;;;;24.42;22.77;;;;;;;27.84;93.63;101267.84;5044683;28;20080;-80
2023/08/09 10:40:16;;;;;;;22.58;21.08;;;;;;;27.14;100.00;101262.78;5033603;28;20056;-84
2023/08/09 10:43:08;;;;;;;21.65;20.15;;;;;;;27.73;98.37;101268.38;5042239;28;20052;-84
2023/08/09 10:45:50;;;;;;;23.23;21.67;;;;;;;27.91;100.00;101255.72;5051545;28;20057;-84
2023/08/09 10:48:34;;;;;;;23.33;21.63;;;;;;;28.41;82.44;101250.09;5051846;28;20068;-84
2023/08/09 10:51:33;;;;;;;24.90;23.30;;;;;;;28.07;76.42;101259.66;5050494;28;20044;-84
2023/08/09 10:54:02;;;;;;;24.60;22.90;;;;;;;27.86;83.01;101253.88;5042992;28;20083;-80
2023/08/09 10:56:46;;;;;;;24.35;22.52;;;;;;;27.72;89.52;101259.38;5047221;28;20053;-80
2023/08/09 10:59:21;;;;;;;22.65;20.85;;;;;;;27.94;77.78;101257.81;5049360;28;20072;-80
2023/08/09 11:02:05;;;;;;;22.50;20.88;;;;;;;28.84;77.06;101244.03;5051140;28;20073;-80
2023/08/09 11:04:44;;;;;;;22.70;21.00;;;;;;;28.82;87.47;101235.31;5051184;28;20047;-81
2023/08/09 11:07:20;;;;;;;22.73;21.02;;;;;;;30.22;71.01;101237.06;5049402;28;20594;-80
2023/08/09 11:10:08;;;;;;;22.05;20.45;;;;;;;30.02;65.74;101233.06;5051745;28;20080;-84
2023/08/09 11:15:57;;;;;;;20.98;19.27;;;;;;;30.38;57.99;101232.69;5052856;28;20086;-85
2023/08/09 11:21:47;;;;;;;22.00;20.40;;;;;;;30.19;52.71;101213.03;5053587;28;20059;-84
2023/08/09 11:24:51;;;;;;;23.58;21.98;;;;;;;30.93;50.62;101207.13;5052818;28;20127;-85
2023/08/09 11:30:41;;;;;;;20.50;18.90;;;;;;;29.85;58.60;101215.53;5052745;28;20071;-85
2023/08/09 11:36:31;;;;;;;21.38;19.77;;;;;;;30.19;51.58;101205.63;5051708;28;20413;-80
2023/08/09 11:38:58;;;;;;;23.83;22.13;;;;;;;30.54;49.99;101191.81;5044472;28;20044;-80
2023/08/09 11:41:26;;;;;;;23.30;21.60;;;;;;;30.48;50.55;101180.25;5045094;28;20452;-80
2023/08/09 11:43:54;;;;;;;24.10;22.30;;;;;;;30.12;68.06;101177.94;5045338;28;20414;-80
2023/08/09 11:46:26;;;;;;;25.50;23.80;;;;;;;30.48;51.86;101179.44;5047746;28;20436;-80
2023/08/09 11:48:53;;;;;;;24.00;22.20;;;;;;;30.86;44.42;101173.94;5047338;28;20070;-80
2023/08/09 11:51:23;;;;;;;24.20;22.40;;;;;;;29.04;46.86;101180.56;5049672;28;20049;-80
2023/08/09 11:54:03;;;;;;;23.10;21.40;;;;;;;30.37;48.14;101170.78;5042823;28;20046;-80
2023/08/09 11:56:41;;;;;;;26.40;24.50;;;;;;;30.46;51.17;101182.50;5042065;28;20045;-80
2023/08/09 11:59:11;;;;;;;23.63;21.83;;;;;;;31.42;50.83;101184.69;5046404;28;20045;-80
2023/08/09 12:01:52;;;;;;;22.08;20.27;;;;;;;32.11;49.46;101185.97;5050090;28;20040;-80
2023/08/09 12:04:29;;;;;;;23.10;21.30;;;;;;;30.22;49.46;101183.09;5051913;28;20045;-84
2023/08/09 12:13:57;;;;;;;22.10;20.40;;;;;;;30.15;48.73;101171.81;5052328;28;20182;-85
2023/08/09 12:19:47;;;;;;;21.83;20.33;;;;;;;30.42;46.26;101170.59;5052719;28;20035;-85
2023/08/09 12:22:14;;;;;;;21.67;20.08;;;;;;;30.28;45.36;101170.00;5051680;28;20040;-85
2023/08/09 12:24:42;;;;;;;20.60;19.00;;;;;;;30.22;42.38;101166.66;5051596;28;20060;-84
2023/08/09 12:27:09;;;;;;;21.83;20.23;;;;;;;30.13;48.19;101169.38;5052218;28;20132;-81
2023/08/09 12:29:53;;;;;;;21.15;19.55;;;;;;;30.21;45.10;101162.31;5051780;28;20049;-85
2023/08/09 12:32:38;;;;;;;21.85;20.35;;;;;;;29.49;47.14;101155.66;5052196;28;20053;-85
2023/08/09 12:42:15;;;;;;;22.00;20.40;;;;;;;28.35;52.16;101153.00;5043493;28;20048;-85
2023/08/09 12:45:05;;;;;;;24.23;22.23;;;;;;;28.39;59.79;101145.78;5049555;28;20052;-80
2023/08/09 12:48:02;;;;;;;23.00;21.20;;;;;;;28.55;51.79;101147.00;5051841;28;20049;-85
2023/08/09 12:53:53;;;;;;;20.85;19.25;;;;;;;30.29;47.87;101142.31;5056069;28;20040;-85
2023/08/09 12:59:43;;;;;;;21.65;19.95;;;;;;;30.10;49.95;101139.91;5055762;28;20531;-85
2023/08/09 13:05:31;;;;;;;21.65;19.95;;;;;;;31.15;41.25;101125.66;5055895;28;20036;-80
2023/08/09 13:11:21;;;;;;;23.77;21.88;;;;;;;30.96;43.73;101126.94;5054000;28;20094;-81
2023/08/09 13:13:58;;;;;;;26.10;24.10;;;;;;;30.85;46.04;101111.22;5052707;28;20048;-80
2023/08/09 13:20:12;;;;;;;23.67;21.88;;;;;;;30.99;42.89;101118.03;5055334;28;20072;-84
2023/08/09 13:26:00;;;;;;;22.73;20.92;;;;;;;30.70;45.26;101113.38;5055313;28;20032;-84
2023/08/09 13:31:49;;;;;;;22.08;20.40;;;;;;;31.12;40.00;101109.88;5056066;28;20093;-85
2023/08/09 13:37:44;;;;;;;23.02;21.30;;;;;;;31.11;44.19;101089.06;5051393;28;20033;-80
2023/08/09 13:40:15;;;;;;;23.20;21.50;;;;;;;30.93;44.25;101085.69;5050368;28;20041;-80
2023/08/09 13:42:43;;;;;;;22.67;20.88;;;;;;;31.27;40.70;101087.31;5049717;28;20111;-80
2023/08/09 13:45:15;;;;;;;22.60;20.80;;;;;;;31.95;41.80;101097.91;5052181;28;20140;-81
2023/08/09 13:47:42;;;;;;;;;;;;;;;32.10;41.23;101094.50;5048041;28;20049;-80
2023/08/09 13:50:12;;;;;;;23.05;21.25;;;;;;;30.94;42.87;101088.06;5051352;28;19921;-81
2023/08/09 13:52:39;;;;;;;23.00;21.30;;;;;;;31.03;42.91;101099.78;5051947;28;20151;-81
2023/08/09 13:55:08;;;;;;;20.77;19.17;;;;;;;31.04;46.72;101097.81;5047652;28;20135;-81
2023/08/09 13:57:37;;;;;;;23.27;21.58;;;;;;;31.11;48.24;101094.56;5049291;28;20051;-81